Sanctuary — WDI2390 — position and weather

sailwx.info

Track history (hours):
 
Tides and Currents Weather Stations Pressure Air Temp Water Temp Dewpoint Dewpoint Depression Visibility Wind Speed Wind Dir Waves Ship Positions

Sanctuary

Owner: Boston Harbor Cruises, Boston, MA. More information available from US FCC via Universal Licensing System and Coast Guard Vessel Documentation Center.

Last reported at 2018-Jun-25 01:40 UTC. Time now 2018-Jun-25 08:21 UTC.
Position N 42°15' W 070°57'.

Length 35 m; draft 2.9 m.

Type: High speed craft. MMSI: 367677570.

Date/timePositionNaut miles runAvg speedWind from/ knotsBaromVisibWave heightAir tempDewpointWater temp
2018-Jun-25 01:40N 42°15' W 070°57'211.8
2018-Jun-25 01:31N 42°17' W 070°57'612.6
2018-Jun-25 01:00N 42°22' W 071°03'1018.2
2018-Jun-25 00:28N 42°25' W 070°51'1328.1
2018-Jun-25 00:01N 42°34' W 070°37'1019.5
2018-Jun-24 23:30N 42°41' W 070°28'0 0.4
2018-Jun-24 23:00N 42°41' W 070°28'1 1.6
2018-Jun-24 22:30N 42°40' W 070°28'1122.3
2018-Jun-24 22:01N 42°33' W 070°39'1429.0
2018-Jun-24 21:31N 42°23' W 070°54'713.6
2018-Jun-24 21:00N 42°22' W 071°03'0 0.1
2018-Jun-24 20:30N 42°22' W 071°03'0 0.0
2018-Jun-24 20:00N 42°22' W 071°03'612.5
2018-Jun-24 19:30N 42°22' W 070°55'1427.6
2018-Jun-24 19:00N 42°32' W 070°41'918.1
2018-Jun-24 18:30N 42°37' W 070°31'3 5.4
2018-Jun-24 18:00N 42°39' W 070°29'1 1.9
2018-Jun-24 17:31N 42°39' W 070°29'1019.5
2018-Jun-24 17:00N 42°33' W 070°39'1428.1
2018-Jun-24 16:30N 42°23' W 070°54'714.5
2018-Jun-24 16:01N 42°22' W 071°03'0 0.0
2018-Jun-24 15:30N 42°22' W 071°03'0 0.2
2018-Jun-24 15:00N 42°22' W 071°03'2 3.7
2018-Jun-24 14:30N 42°21' W 071°01'610.9
2018-Jun-24 13:59N 42°16' W 070°56'2 5.1
2018-Jun-24 13:30N 42°15' W 070°58'0 0.0
2018-Jun-24 12:59N 42°15' W 070°58'0 0.0
2018-Jun-24 12:30N 42°15' W 070°58'0 0.0
2018-Jun-24 11:59N 42°15' W 070°58'0 0.0
2018-Jun-24 11:30N 42°15' W 070°58'0 0.0
2018-Jun-24 01:08N 42°15' W 070°58'0 2.9
2018-Jun-24 01:00N 42°15' W 070°58'815.8
2018-Jun-24 00:30N 42°22' W 071°03'0 0.9
2018-Jun-24 00:00N 42°21' W 071°02'1121.7
2018-Jun-23 23:30N 42°23' W 070°48'1326.6
2018-Jun-23 23:00N 42°22' W 070°30'611.4
2018-Jun-23 22:30N 42°23' W 070°22'918.0
2018-Jun-23 22:00N 42°21' W 070°34'1427.6
2018-Jun-23 21:30N 42°19' W 070°52'816.5
2018-Jun-23 21:00N 42°22' W 071°03'0 0.0
2018-Jun-23 20:30N 42°22' W 071°03'0 0.0
2018-Jun-23 20:00N 42°22' W 071°03'0 1.0
2018-Jun-23 19:30N 42°21' W 071°02'1121.4
2018-Jun-23 19:00N 42°23' W 070°48'1428.5
2018-Jun-23 18:30N 42°22' W 070°29'611.5
2018-Jun-23 17:59N 42°22' W 070°21'0 1.0
2018-Jun-23 17:30N 42°22' W 070°20'918.8
2018-Jun-23 17:01N 42°22' W 070°33'1427.6
2018-Jun-23 16:30N 42°21' W 070°52'816.9
2018-Jun-23 16:00N 42°22' W 071°03'0 0.2
2018-Jun-23 15:31N 42°22' W 071°03'0 0.0
2018-Jun-23 15:00N 42°22' W 071°03'0 0.5
2018-Jun-23 14:30N 42°22' W 071°03'815.3
2018-Jun-23 14:01N 42°15' W 070°58'0 0.8
2018-Jun-23 13:30N 42°15' W 070°58'0 0.0
2018-Jun-23 13:00N 42°15' W 070°58'0 0.0
2018-Jun-23 12:21N 42°15' W 070°58'0 0.0
2018-Jun-23 12:00N 42°15' W 070°58'0 0.0
2018-Jun-23 11:30N 42°15' W 070°58'0 0.0
2018-Jun-22 23:44N 42°15' W 070°58'1 5.8
2018-Jun-22 23:30N 42°15' W 070°57'2 3.3
2018-Jun-22 23:01N 42°17' W 070°56'713.5
2018-Jun-22 22:30N 42°22' W 071°03'918.3
2018-Jun-22 22:01N 42°19' W 070°51'1427.6
2018-Jun-22 21:31N 42°18' W 070°32'1019.0
2018-Jun-22 20:58N 42°17' W 070°19'1 1.6
2018-Jun-22 20:30N 42°17' W 070°19'5 9.3
2018-Jun-22 20:00N 42°22' W 070°21'1326.8
2018-Jun-22 19:30N 42°21' W 070°39'1326.2
2018-Jun-22 19:01N 42°20' W 070°57'5 9.9
2018-Jun-22 18:31N 42°22' W 071°03'0 0.6
2018-Jun-22 18:00N 42°22' W 071°03'1 1.1
2018-Jun-22 17:31N 42°22' W 071°02'0 0.0
2018-Jun-22 17:00N 42°22' W 071°02'1 1.6
2018-Jun-22 16:31N 42°21' W 071°03'0 0.1
2018-Jun-22 16:00N 42°21' W 071°03'0 0.1
2018-Jun-22 15:30N 42°21' W 071°03'814.6
2018-Jun-22 14:56N 42°15' W 070°55'0 0.3
2018-Jun-22 14:30N 42°15' W 070°55'816.7
2018-Jun-22 14:01N 42°21' W 071°03'0 0.5
2018-Jun-22 13:30N 42°22' W 071°03'0 0.4
2018-Jun-22 13:01N 42°22' W 071°03'0 0.4
2018-Jun-22 12:30N 42°21' W 071°03'811.6
2018-Jun-22 11:48N 42°15' W 070°55'516.6
2018-Jun-22 11:30N 42°19' W 070°59'3 6.5
2018-Jun-22 11:00N 42°21' W 071°03'816.3
2018-Jun-22 10:30N 42°15' W 070°55'0 0.9
2018-Jun-22 10:01N 42°16' W 070°55'2 0.2
2018-Jun-21 23:32N 42°15' W 070°57'0 5.3
2018-Jun-21 23:30N 42°15' W 070°57'815.4
2018-Jun-21 23:00N 42°22' W 071°03'0 0.6
2018-Jun-21 22:30N 42°22' W 071°03'4 8.8
2018-Jun-21 22:00N 42°20' W 070°57'1427.6
2018-Jun-21 21:30N 42°22' W 070°39'1020.6
2018-Jun-21 21:00N 42°24' W 070°25'1 1.7
2018-Jun-21 20:30N 42°23' W 070°25'3 5.5
2018-Jun-21 20:01N 42°23' W 070°28'611.5
2018-Jun-21 19:31N 42°22' W 070°36'1325.8
2018-Jun-21 19:00N 42°21' W 070°53'714.3
2018-Jun-21 18:31N 42°22' W 071°03'0 0.8
2018-Jun-21 18:01N 42°21' W 071°03'2 3.7
2018-Jun-21 17:30N 42°21' W 071°00'2 3.4
2018-Jun-21 17:00N 42°22' W 071°02'0 0.0
2018-Jun-21 16:30N 42°22' W 071°02'0 0.0
2018-Jun-21 16:00N 42°22' W 071°02'0 0.0
2018-Jun-21 15:30N 42°22' W 071°02'0 0.9
2018-Jun-21 15:00N 42°22' W 071°03'0 0.6
2018-Jun-21 14:30N 42°22' W 071°03'0 0.0
2018-Jun-21 14:01N 42°22' W 071°03'5 9.7
2018-Jun-21 13:31N 42°18' W 070°58'4 7.2
2018-Jun-21 13:00N 42°15' W 070°55'816.6
2018-Jun-21 12:30N 42°21' W 071°03'1 1.2
2018-Jun-21 12:00N 42°21' W 071°02'713.4
2018-Jun-21 11:30N 42°16' W 070°56'1 1.5
2018-Jun-21 11:01N 42°16' W 070°56'2 3.4
2018-Jun-21 10:30N 42°15' W 070°58'0 0.0
2018-Jun-21 10:00N 42°15' W 070°58'1 0.1
2018-Jun-21 00:19N 42°15' W 070°57'2 4.5
2018-Jun-20 23:59N 42°15' W 070°55'817.4
2018-Jun-20 23:30N 42°21' W 071°03'3 5.4
2018-Jun-20 23:01N 42°20' W 070°60'611.1
2018-Jun-20 22:30N 42°15' W 070°55'817.0
2018-Jun-20 22:00N 42°21' W 071°03'3 6.8
2018-Jun-20 21:30N 42°20' W 070°59'611.2
2018-Jun-20 21:00N 42°15' W 070°55'816.7
2018-Jun-20 20:30N 42°21' W 071°03'0 0.4
2018-Jun-20 20:00N 42°21' W 071°03'0 0.6
2018-Jun-20 19:30N 42°22' W 071°03'2 4.3
2018-Jun-20 19:01N 42°21' W 071°00'1326.0
2018-Jun-20 18:31N 42°24' W 070°44'1020.2
2018-Jun-20 18:00N 42°27' W 070°30'0 0.3
2018-Jun-20 17:31N 42°27' W 070°30'4 8.7
2018-Jun-20 17:00N 42°23' W 070°33'1325.8
2018-Jun-20 16:30N 42°21' W 070°51'918.3
2018-Jun-20 16:00N 42°22' W 071°03'0 0.0
2018-Jun-20 15:30N 42°22' W 071°03'0 0.0
2018-Jun-20 15:00N 42°22' W 071°03'0 0.0
2018-Jun-20 14:30N 42°22' W 071°03'711.3
2018-Jun-20 13:56N 42°18' W 070°56'613.9
2018-Jun-20 13:30N 42°21' W 071°02'5 9.5
2018-Jun-20 13:00N 42°18' W 070°58'3 6.1
2018-Jun-20 12:30N 42°15' W 070°55'816.8
2018-Jun-20 12:00N 42°21' W 071°03'611.1
2018-Jun-20 11:30N 42°17' W 070°58'3 5.5
2018-Jun-20 11:00N 42°15' W 070°55'1 3.0
2018-Jun-20 10:30N 42°15' W 070°57'1 1.8
2018-Jun-20 09:59N 42°15' W 070°58'1 0.1
2018-Jun-20 00:17N 42°15' W 070°57'1 4.0
2018-Jun-20 00:00N 42°15' W 070°55'816.8
2018-Jun-19 23:31N 42°21' W 071°03'3 5.1
2018-Jun-19 23:00N 42°20' W 071°00'611.9
2018-Jun-19 22:30N 42°15' W 070°55'816.9
2018-Jun-19 22:01N 42°21' W 071°03'2 4.7
2018-Jun-19 21:30N 42°21' W 070°60'612.7
2018-Jun-19 21:00N 42°15' W 070°55'816.6
2018-Jun-19 20:30N 42°21' W 071°03'0 0.4
2018-Jun-19 20:00N 42°22' W 071°03'4 8.9
2018-Jun-19 19:30N 42°20' W 070°57'1427.3
2018-Jun-19 19:00N 42°24' W 070°40'815.1
2018-Jun-19 18:30N 42°26' W 070°30'2 3.3
2018-Jun-19 18:00N 42°25' W 070°27'0 0.4
2018-Jun-19 17:27N 42°25' W 070°27'614.2
2018-Jun-19 17:01N 42°25' W 070°36'1326.8
2018-Jun-19 16:30N 42°21' W 070°53'815.0
2018-Jun-19 16:00N 42°22' W 071°03'0 0.0
2018-Jun-19 15:30N 42°22' W 071°03'0 0.0
2018-Jun-19 15:01N 42°22' W 071°03'1 1.6
2018-Jun-19 14:30N 42°22' W 071°03'1 1.2
2018-Jun-19 14:00N 42°22' W 071°03'4 8.9
2018-Jun-19 13:30N 42°18' W 070°59'4 7.0
2018-Jun-19 13:00N 42°16' W 070°55'816.3
2018-Jun-19 12:31N 42°21' W 071°03'0 0.4
2018-Jun-19 12:00N 42°21' W 071°03'5 9.5
2018-Jun-19 11:30N 42°18' W 070°58'4 5.9
2018-Jun-19 10:54N 42°15' W 070°55'2 5.6
2018-Jun-19 10:30N 42°15' W 070°58'0 0.3
2018-Jun-19 10:00N 42°15' W 070°58'0 0.0
2018-Jun-19 09:30N 42°15' W 070°58'0 0.0
2018-Jun-19 00:45N 42°15' W 070°58'2 6.5
2018-Jun-19 00:30N 42°16' W 070°56'1 2.0
2018-Jun-19 00:01N 42°15' W 070°55'816.7
2018-Jun-18 23:30N 42°21' W 071°03'2 4.3
2018-Jun-18 23:00N 42°20' W 071°00'612.3
2018-Jun-18 22:30N 42°15' W 070°55'816.8
2018-Jun-18 22:01N 42°21' W 071°03'2 5.0
2018-Jun-18 21:31N 42°20' W 070°60'610.1
2018-Jun-18 20:57N 42°16' W 070°55'817.9
2018-Jun-18 20:30N 42°21' W 071°03'0 0.6
2018-Jun-18 20:01N 42°22' W 071°03'1322.8
2018-Jun-18 19:27N 42°23' W 070°46'1226.0
2018-Jun-18 19:00N 42°26' W 070°31'612.0
2018-Jun-18 18:30N 42°23' W 070°24'3 5.1
2018-Jun-18 17:55N 42°20' W 070°25'1 2.4
2018-Jun-18 17:30N 42°20' W 070°24'917.5
2018-Jun-18 17:00N 42°21' W 070°35'1427.8
2018-Jun-18 16:31N 42°19' W 070°54'714.2
2018-Jun-18 16:00N 42°22' W 071°03'0 0.0
2018-Jun-18 15:30N 42°22' W 071°03'0 0.0
2018-Jun-18 15:00N 42°22' W 071°03'0 0.0
2018-Jun-18 14:30N 42°22' W 071°03'0 0.1
2018-Jun-18 14:00N 42°22' W 071°03'0 0.0
2018-Jun-18 13:31N 42°22' W 071°03'0 0.0
2018-Jun-18 13:00N 42°22' W 071°03'0 0.8
2018-Jun-18 12:30N 42°21' W 071°02'816.1
2018-Jun-18 12:00N 42°15' W 070°55'4 8.2
2018-Jun-18 11:30N 42°18' W 070°59'4 8.5
2018-Jun-18 11:01N 42°21' W 071°03'815.8
2018-Jun-18 10:29N 42°15' W 070°55'0 0.8
2018-Jun-18 10:00N 42°16' W 070°55'2 5.0
2018-Jun-18 09:30N 42°15' W 070°58'0 0.0
2018-Jun-17 23:25N 42°15' W 070°58'511.7
2018-Jun-17 23:01N 42°19' W 070°60'3 6.4
2018-Jun-17 22:30N 42°22' W 071°03'815.6
2018-Jun-17 22:01N 42°21' W 070°53'1427.8
2018-Jun-17 21:31N 42°24' W 070°34'815.7
2018-Jun-17 21:00N 42°26' W 070°24'1 1.2
2018-Jun-17 20:30N 42°25' W 070°23'1 2.0
2018-Jun-17 20:01N 42°25' W 070°24'917.4
2018-Jun-17 19:30N 42°23' W 070°36'1326.9
2018-Jun-17 19:00N 42°21' W 070°54'713.6
2018-Jun-17 18:30N 42°22' W 071°03'0 0.0
2018-Jun-17 18:01N 42°22' W 071°03'0 0.0
2018-Jun-17 17:30N 42°22' W 071°03'611.8
2018-Jun-17 17:00N 42°21' W 070°55'1427.9
2018-Jun-17 16:30N 42°23' W 070°36'917.1
2018-Jun-17 16:00N 42°25' W 070°25'1 1.0
2018-Jun-17 15:30N 42°25' W 070°26'714.2
2018-Jun-17 15:01N 42°23' W 070°35'1427.3
2018-Jun-17 14:31N 42°21' W 070°53'714.8
2018-Jun-17 14:00N 42°22' W 071°03'0 0.1
2018-Jun-17 13:30N 42°22' W 071°03'0 0.7
2018-Jun-17 13:01N 42°21' W 071°03'1 1.8
2018-Jun-17 12:30N 42°21' W 071°01'612.0
2018-Jun-17 12:01N 42°17' W 070°56'2 0.2
2018-Jun-16 23:12N 42°15' W 070°57'210.5
2018-Jun-16 23:00N 42°17' W 070°57'612.9
2018-Jun-16 22:30N 42°22' W 071°03'1 2.9
2018-Jun-16 22:00N 42°21' W 071°01'1224.9
2018-Jun-16 21:30N 42°22' W 070°44'1326.2
2018-Jun-16 21:00N 42°25' W 070°27'1 1.9
2018-Jun-16 20:31N 42°25' W 070°26'0 0.8
2018-Jun-16 19:59N 42°25' W 070°26'714.6
2018-Jun-16 19:30N 42°22' W 070°34'1426.7
2018-Jun-16 19:00N 42°19' W 070°52'917.6
2018-Jun-16 18:30N 42°22' W 071°03'0 0.0
2018-Jun-16 18:00N 42°22' W 071°03'3 6.5
2018-Jun-16 17:30N 42°20' W 070°59'1426.5
2018-Jun-16 17:00N 42°28' W 070°44'1327.7
2018-Jun-16 16:31N 42°37' W 070°30'510.6
2018-Jun-16 16:00N 42°41' W 070°25'0 0.6
2018-Jun-16 15:30N 42°41' W 070°25'1326.7
2018-Jun-16 15:00N 42°32' W 070°38'1427.0
2018-Jun-16 14:30N 42°23' W 070°53'815.8
2018-Jun-16 14:00N 42°22' W 071°03'0 0.0
2018-Jun-16 13:31N 42°22' W 071°03'1 2.1
2018-Jun-16 13:01N 42°21' W 071°02'714.2
2018-Jun-16 12:30N 42°15' W 070°58'0 0.2
2018-Jun-16 12:00N 42°15' W 070°58'0 0.0
2018-Jun-16 11:30N 42°15' W 070°58'1 0.1
2018-Jun-15 23:19N 42°15' W 070°57'620.5
2018-Jun-15 23:00N 42°21' W 071°01'2 3.1
2018-Jun-15 22:31N 42°22' W 071°03'1121.0
2018-Jun-15 22:00N 42°25' W 070°49'1427.3
2018-Jun-15 21:30N 42°34' W 070°35'1020.2
2018-Jun-15 21:01N 42°40' W 070°24'1 1.5
2018-Jun-15 20:30N 42°39' W 070°25'0 0.9
2018-Jun-15 20:00N 42°39' W 070°25'1427.1
2018-Jun-15 19:30N 42°30' W 070°39'1428.2
2018-Jun-15 19:01N 42°20' W 070°52'816.7
2018-Jun-15 18:30N 42°22' W 071°03'0 0.4
2018-Jun-15 18:00N 42°21' W 071°03'0 0.0
2018-Jun-15 17:31N 42°21' W 071°03'0 0.0
2018-Jun-15 17:00N 42°21' W 071°03'0 0.0
2018-Jun-15 16:31N 42°21' W 071°03'0 0.0
2018-Jun-15 16:00N 42°21' W 071°03'0 0.9
2018-Jun-15 15:30N 42°21' W 071°02'8 7.5
2018-Jun-15 14:30N 42°16' W 070°55'816.3
2018-Jun-15 14:00N 42°21' W 071°03'0 0.5
2018-Jun-15 13:30N 42°22' W 071°03'0 0.5
2018-Jun-15 13:01N 42°21' W 071°03'0 0.1
2018-Jun-15 12:30N 42°21' W 071°03'816.5
2018-Jun-15 12:00N 42°15' W 070°55'4 7.8
2018-Jun-15 11:30N 42°18' W 070°59'4 8.3
2018-Jun-15 11:00N 42°21' W 071°02'812.2
2018-Jun-15 10:21N 42°15' W 070°55'1 1.7
2018-Jun-15 09:59N 42°16' W 070°55'  
Track history (hours):
 
Tides and Currents Weather Stations Pressure Air Temp Water Temp Dewpoint Dewpoint Depression Visibility Wind Speed Wind Dir Waves Ship Positions

Sanctuary

Owner: Boston Harbor Cruises, Boston, MA. More information available from US FCC via Universal Licensing System and Coast Guard Vessel Documentation Center.

Last reported at 2018-Jun-25 01:40 UTC. Time now 2018-Jun-25 08:21 UTC.
Position N 42°15' W 070°57'.

Length 35 m; draft 2.9 m.

Type: High speed craft. MMSI: 367677570.

Date/timePositionNaut miles runAvg speedWind from/ knotsBaromVisibWave heightAir tempDewpointWater temp
2018-Jun-25 01:40N 42°15' W 070°57'211.8
2018-Jun-25 01:31N 42°17' W 070°57'612.6
2018-Jun-25 01:00N 42°22' W 071°03'1018.2
2018-Jun-25 00:28N 42°25' W 070°51'1328.1
2018-Jun-25 00:01N 42°34' W 070°37'1019.5
2018-Jun-24 23:30N 42°41' W 070°28'0 0.4
2018-Jun-24 23:00N 42°41' W 070°28'1 1.6
2018-Jun-24 22:30N 42°40' W 070°28'1122.3
2018-Jun-24 22:01N 42°33' W 070°39'1429.0
2018-Jun-24 21:31N 42°23' W 070°54'713.6
2018-Jun-24 21:00N 42°22' W 071°03'0 0.1
2018-Jun-24 20:30N 42°22' W 071°03'0 0.0
2018-Jun-24 20:00N 42°22' W 071°03'612.5
2018-Jun-24 19:30N 42°22' W 070°55'1427.6
2018-Jun-24 19:00N 42°32' W 070°41'918.1
2018-Jun-24 18:30N 42°37' W 070°31'3 5.4
2018-Jun-24 18:00N 42°39' W 070°29'1 1.9
2018-Jun-24 17:31N 42°39' W 070°29'1019.5
2018-Jun-24 17:00N 42°33' W 070°39'1428.1
2018-Jun-24 16:30N 42°23' W 070°54'714.5
2018-Jun-24 16:01N 42°22' W 071°03'0 0.0
2018-Jun-24 15:30N 42°22' W 071°03'0 0.2
2018-Jun-24 15:00N 42°22' W 071°03'2 3.7
2018-Jun-24 14:30N 42°21' W 071°01'610.9
2018-Jun-24 13:59N 42°16' W 070°56'2 5.1
2018-Jun-24 13:30N 42°15' W 070°58'0 0.0
2018-Jun-24 12:59N 42°15' W 070°58'0 0.0
2018-Jun-24 12:30N 42°15' W 070°58'0 0.0
2018-Jun-24 11:59N 42°15' W 070°58'0 0.0
2018-Jun-24 11:30N 42°15' W 070°58'0 0.0
2018-Jun-24 01:08N 42°15' W 070°58'0 2.9
2018-Jun-24 01:00N 42°15' W 070°58'815.8
2018-Jun-24 00:30N 42°22' W 071°03'0 0.9
2018-Jun-24 00:00N 42°21' W 071°02'1121.7
2018-Jun-23 23:30N 42°23' W 070°48'1326.6
2018-Jun-23 23:00N 42°22' W 070°30'611.4
2018-Jun-23 22:30N 42°23' W 070°22'918.0
2018-Jun-23 22:00N 42°21' W 070°34'1427.6
2018-Jun-23 21:30N 42°19' W 070°52'816.5
2018-Jun-23 21:00N 42°22' W 071°03'0 0.0
2018-Jun-23 20:30N 42°22' W 071°03'0 0.0
2018-Jun-23 20:00N 42°22' W 071°03'0 1.0
2018-Jun-23 19:30N 42°21' W 071°02'1121.4
2018-Jun-23 19:00N 42°23' W 070°48'1428.5
2018-Jun-23 18:30N 42°22' W 070°29'611.5
2018-Jun-23 17:59N 42°22' W 070°21'0 1.0
2018-Jun-23 17:30N 42°22' W 070°20'918.8
2018-Jun-23 17:01N 42°22' W 070°33'1427.6
2018-Jun-23 16:30N 42°21' W 070°52'816.9
2018-Jun-23 16:00N 42°22' W 071°03'0 0.2
2018-Jun-23 15:31N 42°22' W 071°03'0 0.0
2018-Jun-23 15:00N 42°22' W 071°03'0 0.5
2018-Jun-23 14:30N 42°22' W 071°03'815.3
2018-Jun-23 14:01N 42°15' W 070°58'0 0.8
2018-Jun-23 13:30N 42°15' W 070°58'0 0.0
2018-Jun-23 13:00N 42°15' W 070°58'0 0.0
2018-Jun-23 12:21N 42°15' W 070°58'0 0.0
2018-Jun-23 12:00N 42°15' W 070°58'0 0.0
2018-Jun-23 11:30N 42°15' W 070°58'0 0.0
2018-Jun-22 23:44N 42°15' W 070°58'1 5.8
2018-Jun-22 23:30N 42°15' W 070°57'2 3.3
2018-Jun-22 23:01N 42°17' W 070°56'713.5
2018-Jun-22 22:30N 42°22' W 071°03'918.3
2018-Jun-22 22:01N 42°19' W 070°51'1427.6
2018-Jun-22 21:31N 42°18' W 070°32'1019.0
2018-Jun-22 20:58N 42°17' W 070°19'1 1.6
2018-Jun-22 20:30N 42°17' W 070°19'5 9.3
2018-Jun-22 20:00N 42°22' W 070°21'1326.8
2018-Jun-22 19:30N 42°21' W 070°39'1326.2
2018-Jun-22 19:01N 42°20' W 070°57'5 9.9
2018-Jun-22 18:31N 42°22' W 071°03'0 0.6
2018-Jun-22 18:00N 42°22' W 071°03'1 1.1
2018-Jun-22 17:31N 42°22' W 071°02'0 0.0
2018-Jun-22 17:00N 42°22' W 071°02'1 1.6
2018-Jun-22 16:31N 42°21' W 071°03'0 0.1
2018-Jun-22 16:00N 42°21' W 071°03'0 0.1
2018-Jun-22 15:30N 42°21' W 071°03'814.6
2018-Jun-22 14:56N 42°15' W 070°55'0 0.3
2018-Jun-22 14:30N 42°15' W 070°55'816.7
2018-Jun-22 14:01N 42°21' W 071°03'0 0.5
2018-Jun-22 13:30N 42°22' W 071°03'0 0.4
2018-Jun-22 13:01N 42°22' W 071°03'0 0.4
2018-Jun-22 12:30N 42°21' W 071°03'811.6
2018-Jun-22 11:48N 42°15' W 070°55'516.6
2018-Jun-22 11:30N 42°19' W 070°59'3 6.5
2018-Jun-22 11:00N 42°21' W 071°03'816.3
2018-Jun-22 10:30N 42°15' W 070°55'0 0.9
2018-Jun-22 10:01N 42°16' W 070°55'2 0.2
2018-Jun-21 23:32N 42°15' W 070°57'0 5.3
2018-Jun-21 23:30N 42°15' W 070°57'815.4
2018-Jun-21 23:00N 42°22' W 071°03'0 0.6
2018-Jun-21 22:30N 42°22' W 071°03'4 8.8
2018-Jun-21 22:00N 42°20' W 070°57'1427.6
2018-Jun-21 21:30N 42°22' W 070°39'1020.6
2018-Jun-21 21:00N 42°24' W 070°25'1 1.7
2018-Jun-21 20:30N 42°23' W 070°25'3 5.5
2018-Jun-21 20:01N 42°23' W 070°28'611.5
2018-Jun-21 19:31N 42°22' W 070°36'1325.8
2018-Jun-21 19:00N 42°21' W 070°53'714.3
2018-Jun-21 18:31N 42°22' W 071°03'0 0.8
2018-Jun-21 18:01N 42°21' W 071°03'2 3.7
2018-Jun-21 17:30N 42°21' W 071°00'2 3.4
2018-Jun-21 17:00N 42°22' W 071°02'0 0.0
2018-Jun-21 16:30N 42°22' W 071°02'0 0.0
2018-Jun-21 16:00N 42°22' W 071°02'0 0.0
2018-Jun-21 15:30N 42°22' W 071°02'0 0.9
2018-Jun-21 15:00N 42°22' W 071°03'0 0.6
2018-Jun-21 14:30N 42°22' W 071°03'0 0.0
2018-Jun-21 14:01N 42°22' W 071°03'5 9.7
2018-Jun-21 13:31N 42°18' W 070°58'4 7.2
2018-Jun-21 13:00N 42°15' W 070°55'816.6
2018-Jun-21 12:30N 42°21' W 071°03'1 1.2
2018-Jun-21 12:00N 42°21' W 071°02'713.4
2018-Jun-21 11:30N 42°16' W 070°56'1 1.5
2018-Jun-21 11:01N 42°16' W 070°56'2 3.4
2018-Jun-21 10:30N 42°15' W 070°58'0 0.0
2018-Jun-21 10:00N 42°15' W 070°58'1 0.1
2018-Jun-21 00:19N 42°15' W 070°57'2 4.5
2018-Jun-20 23:59N 42°15' W 070°55'817.4
2018-Jun-20 23:30N 42°21' W 071°03'3 5.4
2018-Jun-20 23:01N 42°20' W 070°60'611.1
2018-Jun-20 22:30N 42°15' W 070°55'817.0
2018-Jun-20 22:00N 42°21' W 071°03'3 6.8
2018-Jun-20 21:30N 42°20' W 070°59'611.2
2018-Jun-20 21:00N 42°15' W 070°55'816.7
2018-Jun-20 20:30N 42°21' W 071°03'0 0.4
2018-Jun-20 20:00N 42°21' W 071°03'0 0.6
2018-Jun-20 19:30N 42°22' W 071°03'2 4.3
2018-Jun-20 19:01N 42°21' W 071°00'1326.0
2018-Jun-20 18:31N 42°24' W 070°44'1020.2
2018-Jun-20 18:00N 42°27' W 070°30'0 0.3
2018-Jun-20 17:31N 42°27' W 070°30'4 8.7
2018-Jun-20 17:00N 42°23' W 070°33'1325.8
2018-Jun-20 16:30N 42°21' W 070°51'918.3
2018-Jun-20 16:00N 42°22' W 071°03'0 0.0
2018-Jun-20 15:30N 42°22' W 071°03'0 0.0
2018-Jun-20 15:00N 42°22' W 071°03'0 0.0
2018-Jun-20 14:30N 42°22' W 071°03'711.3
2018-Jun-20 13:56N 42°18' W 070°56'613.9
2018-Jun-20 13:30N 42°21' W 071°02'5 9.5
2018-Jun-20 13:00N 42°18' W 070°58'3 6.1
2018-Jun-20 12:30N 42°15' W 070°55'816.8
2018-Jun-20 12:00N 42°21' W 071°03'611.1
2018-Jun-20 11:30N 42°17' W 070°58'3 5.5
2018-Jun-20 11:00N 42°15' W 070°55'1 3.0
2018-Jun-20 10:30N 42°15' W 070°57'1 1.8
2018-Jun-20 09:59N 42°15' W 070°58'1 0.1
2018-Jun-20 00:17N 42°15' W 070°57'1 4.0
2018-Jun-20 00:00N 42°15' W 070°55'816.8
2018-Jun-19 23:31N 42°21' W 071°03'3 5.1
2018-Jun-19 23:00N 42°20' W 071°00'611.9
2018-Jun-19 22:30N 42°15' W 070°55'816.9
2018-Jun-19 22:01N 42°21' W 071°03'2 4.7
2018-Jun-19 21:30N 42°21' W 070°60'612.7
2018-Jun-19 21:00N 42°15' W 070°55'816.6
2018-Jun-19 20:30N 42°21' W 071°03'0 0.4
2018-Jun-19 20:00N 42°22' W 071°03'4 8.9
2018-Jun-19 19:30N 42°20' W 070°57'1427.3
2018-Jun-19 19:00N 42°24' W 070°40'815.1
2018-Jun-19 18:30N 42°26' W 070°30'2 3.3
2018-Jun-19 18:00N 42°25' W 070°27'0 0.4
2018-Jun-19 17:27N 42°25' W 070°27'614.2
2018-Jun-19 17:01N 42°25' W 070°36'1326.8
2018-Jun-19 16:30N 42°21' W 070°53'815.0
2018-Jun-19 16:00N 42°22' W 071°03'0 0.0
2018-Jun-19 15:30N 42°22' W 071°03'0 0.0
2018-Jun-19 15:01N 42°22' W 071°03'1 1.6
2018-Jun-19 14:30N 42°22' W 071°03'1 1.2
2018-Jun-19 14:00N 42°22' W 071°03'4 8.9
2018-Jun-19 13:30N 42°18' W 070°59'4 7.0
2018-Jun-19 13:00N 42°16' W 070°55'816.3
2018-Jun-19 12:31N 42°21' W 071°03'0 0.4
2018-Jun-19 12:00N 42°21' W 071°03'5 9.5
2018-Jun-19 11:30N 42°18' W 070°58'4 5.9
2018-Jun-19 10:54N 42°15' W 070°55'2 5.6
2018-Jun-19 10:30N 42°15' W 070°58'0 0.3
2018-Jun-19 10:00N 42°15' W 070°58'0 0.0
2018-Jun-19 09:30N 42°15' W 070°58'0 0.0
2018-Jun-19 00:45N 42°15' W 070°58'2 6.5
2018-Jun-19 00:30N 42°16' W 070°56'1 2.0
2018-Jun-19 00:01N 42°15' W 070°55'816.7
2018-Jun-18 23:30N 42°21' W 071°03'2 4.3
2018-Jun-18 23:00N 42°20' W 071°00'612.3
2018-Jun-18 22:30N 42°15' W 070°55'816.8
2018-Jun-18 22:01N 42°21' W 071°03'2 5.0
2018-Jun-18 21:31N 42°20' W 070°60'610.1
2018-Jun-18 20:57N 42°16' W 070°55'817.9
2018-Jun-18 20:30N 42°21' W 071°03'0 0.6
2018-Jun-18 20:01N 42°22' W 071°03'1322.8
2018-Jun-18 19:27N 42°23' W 070°46'1226.0
2018-Jun-18 19:00N 42°26' W 070°31'612.0
2018-Jun-18 18:30N 42°23' W 070°24'3 5.1
2018-Jun-18 17:55N 42°20' W 070°25'1 2.4
2018-Jun-18 17:30N 42°20' W 070°24'917.5
2018-Jun-18 17:00N 42°21' W 070°35'1427.8
2018-Jun-18 16:31N 42°19' W 070°54'714.2
2018-Jun-18 16:00N 42°22' W 071°03'0 0.0
2018-Jun-18 15:30N 42°22' W 071°03'0 0.0
2018-Jun-18 15:00N 42°22' W 071°03'0 0.0
2018-Jun-18 14:30N 42°22' W 071°03'0 0.1
2018-Jun-18 14:00N 42°22' W 071°03'0 0.0
2018-Jun-18 13:31N 42°22' W 071°03'0 0.0
2018-Jun-18 13:00N 42°22' W 071°03'0 0.8
2018-Jun-18 12:30N 42°21' W 071°02'816.1
2018-Jun-18 12:00N 42°15' W 070°55'4 8.2
2018-Jun-18 11:30N 42°18' W 070°59'4 8.5
2018-Jun-18 11:01N 42°21' W 071°03'815.8
2018-Jun-18 10:29N 42°15' W 070°55'0 0.8
2018-Jun-18 10:00N 42°16' W 070°55'2 5.0
2018-Jun-18 09:30N 42°15' W 070°58'0 0.0
2018-Jun-17 23:25N 42°15' W 070°58'511.7
2018-Jun-17 23:01N 42°19' W 070°60'3 6.4
2018-Jun-17 22:30N 42°22' W 071°03'815.6
2018-Jun-17 22:01N 42°21' W 070°53'1427.8
2018-Jun-17 21:31N 42°24' W 070°34'815.7
2018-Jun-17 21:00N 42°26' W 070°24'1 1.2
2018-Jun-17 20:30N 42°25' W 070°23'1 2.0
2018-Jun-17 20:01N 42°25' W 070°24'917.4
2018-Jun-17 19:30N 42°23' W 070°36'1326.9
2018-Jun-17 19:00N 42°21' W 070°54'713.6
2018-Jun-17 18:30N 42°22' W 071°03'0 0.0
2018-Jun-17 18:01N 42°22' W 071°03'0 0.0
2018-Jun-17 17:30N 42°22' W 071°03'611.8
2018-Jun-17 17:00N 42°21' W 070°55'1427.9
2018-Jun-17 16:30N 42°23' W 070°36'917.1
2018-Jun-17 16:00N 42°25' W 070°25'1 1.0
2018-Jun-17 15:30N 42°25' W 070°26'714.2
2018-Jun-17 15:01N 42°23' W 070°35'1427.3
2018-Jun-17 14:31N 42°21' W 070°53'714.8
2018-Jun-17 14:00N 42°22' W 071°03'0 0.1
2018-Jun-17 13:30N 42°22' W 071°03'0 0.7
2018-Jun-17 13:01N 42°21' W 071°03'1 1.8
2018-Jun-17 12:30N 42°21' W 071°01'612.0
2018-Jun-17 12:01N 42°17' W 070°56'2 0.2
2018-Jun-16 23:12N 42°15' W 070°57'210.5
2018-Jun-16 23:00N 42°17' W 070°57'612.9
2018-Jun-16 22:30N 42°22' W 071°03'1 2.9
2018-Jun-16 22:00N 42°21' W 071°01'1224.9
2018-Jun-16 21:30N 42°22' W 070°44'1326.2
2018-Jun-16 21:00N 42°25' W 070°27'1 1.9
2018-Jun-16 20:31N 42°25' W 070°26'0 0.8
2018-Jun-16 19:59N 42°25' W 070°26'714.6
2018-Jun-16 19:30N 42°22' W 070°34'1426.7
2018-Jun-16 19:00N 42°19' W 070°52'917.6
2018-Jun-16 18:30N 42°22' W 071°03'0 0.0
2018-Jun-16 18:00N 42°22' W 071°03'3 6.5
2018-Jun-16 17:30N 42°20' W 070°59'1426.5
2018-Jun-16 17:00N 42°28' W 070°44'1327.7
2018-Jun-16 16:31N 42°37' W 070°30'510.6
2018-Jun-16 16:00N 42°41' W 070°25'0 0.6
2018-Jun-16 15:30N 42°41' W 070°25'1326.7
2018-Jun-16 15:00N 42°32' W 070°38'1427.0
2018-Jun-16 14:30N 42°23' W 070°53'815.8
2018-Jun-16 14:00N 42°22' W 071°03'0 0.0
2018-Jun-16 13:31N 42°22' W 071°03'1 2.1
2018-Jun-16 13:01N 42°21' W 071°02'714.2
2018-Jun-16 12:30N 42°15' W 070°58'0 0.2
2018-Jun-16 12:00N 42°15' W 070°58'0 0.0
2018-Jun-16 11:30N 42°15' W 070°58'1 0.1
2018-Jun-15 23:19N 42°15' W 070°57'620.5
2018-Jun-15 23:00N 42°21' W 071°01'2 3.1
2018-Jun-15 22:31N 42°22' W 071°03'1121.0
2018-Jun-15 22:00N 42°25' W 070°49'1427.3
2018-Jun-15 21:30N 42°34' W 070°35'1020.2
2018-Jun-15 21:01N 42°40' W 070°24'1 1.5
2018-Jun-15 20:30N 42°39' W 070°25'0 0.9
2018-Jun-15 20:00N 42°39' W 070°25'1427.1
2018-Jun-15 19:30N 42°30' W 070°39'1428.2
2018-Jun-15 19:01N 42°20' W 070°52'816.7
2018-Jun-15 18:30N 42°22' W 071°03'0 0.4
2018-Jun-15 18:00N 42°21' W 071°03'0 0.0
2018-Jun-15 17:31N 42°21' W 071°03'0 0.0
2018-Jun-15 17:00N 42°21' W 071°03'0 0.0
2018-Jun-15 16:31N 42°21' W 071°03'0 0.0
2018-Jun-15 16:00N 42°21' W 071°03'0 0.9
2018-Jun-15 15:30N 42°21' W 071°02'8 7.5
2018-Jun-15 14:30N 42°16' W 070°55'816.3
2018-Jun-15 14:00N 42°21' W 071°03'0 0.5
2018-Jun-15 13:30N 42°22' W 071°03'0 0.5
2018-Jun-15 13:01N 42°21' W 071°03'0 0.1
2018-Jun-15 12:30N 42°21' W 071°03'816.5
2018-Jun-15 12:00N 42°15' W 070°55'4 7.8
2018-Jun-15 11:30N 42°18' W 070°59'4 8.3
2018-Jun-15 11:00N 42°21' W 071°02'812.2
2018-Jun-15 10:21N 42°15' W 070°55'1 1.7
2018-Jun-15 09:59N 42°16' W 070°55'  

Dump ship's entire track history